Time;durP1;ratioP1;P1;durP2;ratioP2;P2;SDS_P1;SDS_P2;PMS_P1;PMS_P2;Temp;Humidity;BMP_temperature;BMP_pressure;BME280_temperature;BME280_humidity;BME280_pressure;Samples;Min_cycle;Max_cycle;Signal;HPM_P1;HPM_P2
2022/07/12 00:00:29;;;;;;;;;;;12.20;99.90;;;;;;5124879;27;19916;-57
2022/07/12 00:03:10;;;;;;;;;;;12.10;99.90;;;;;;5124716;27;20433;-56
2022/07/12 00:05:51;;;;;;;;;;;12.00;99.90;;;;;;5123781;27;19916;-56
2022/07/12 00:08:32;;;;;;;;;;;11.90;99.90;;;;;;5110106;27;19912;-55
2022/07/12 00:11:12;;;;;;;;;;;11.90;99.90;;;;;;5103803;27;19912;-56
2022/07/12 00:13:52;;;;;;;;;;;11.90;99.90;;;;;;5124176;27;19918;-55
2022/07/12 00:16:32;;;;;;;;;;;11.90;99.90;;;;;;5102862;27;19977;-55
2022/07/12 00:19:11;;;;;;;;;;;11.80;99.90;;;;;;5124318;27;20320;-56
2022/07/12 00:21:51;;;;;;;;;;;11.90;99.90;;;;;;5124694;27;20347;-56
2022/07/12 00:24:31;;;;;;;;;;;11.80;99.90;;;;;;5124074;27;19934;-56
2022/07/12 00:27:11;;;;;;;;;;;11.80;99.90;;;;;;5121475;27;19916;-57
2022/07/12 00:29:51;;;;;;;;;;;11.70;99.90;;;;;;5124596;27;19915;-57
2022/07/12 00:32:31;;;;;;;;;;;11.70;99.90;;;;;;5124435;27;19912;-57
2022/07/12 00:35:11;;;;;;;;;;;11.70;99.90;;;;;;5124013;27;20270;-56
2022/07/12 00:37:50;;;;;;;;;;;11.70;99.90;;;;;;5115456;27;20182;-55
2022/07/12 00:40:30;;;;;;;;;;;11.60;99.90;;;;;;5124433;27;19912;-58
2022/07/12 00:43:10;;;;;;;;;;;11.60;99.90;;;;;;5124418;27;19912;-57
2022/07/12 00:45:50;;;;;;;;;;;11.60;99.90;;;;;;5123804;27;19957;-57
2022/07/12 00:48:31;;;;;;;;;;;11.60;99.90;;;;;;5110681;27;20332;-56
2022/07/12 00:51:11;;;;;;;;;;;11.70;99.90;;;;;;5104183;27;19949;-56
2022/07/12 00:53:52;;;;;;;;;;;11.70;99.90;;;;;;5124861;27;19911;-54
2022/07/12 00:56:32;;;;;;;;;;;11.80;99.90;;;;;;5103409;27;19926;-57
2022/07/12 00:59:12;;;;;;;;;;;11.90;99.90;;;;;;5102256;27;19912;-56
2022/07/12 01:01:52;;;;;;;;;;;12.00;99.90;;;;;;5125011;27;20090;-57
2022/07/12 01:04:32;;;;;;;;;;;12.00;99.90;;;;;;5124792;27;19916;-55
2022/07/12 01:07:12;;;;;;;;;;;12.00;99.90;;;;;;5123380;27;20289;-55
2022/07/12 01:09:53;;;;;;;;;;;12.10;99.90;;;;;;5104205;27;19957;-54
2022/07/12 01:12:34;;;;;;;;;;;12.20;99.90;;;;;;5103922;27;19912;-54
2022/07/12 01:15:14;;;;;;;;;;;12.20;99.90;;;;;;5144772;27;19915;-56
2022/07/12 01:17:56;;;;;;;;;;;12.30;99.90;;;;;;5094430;27;19950;-55
2022/07/12 01:20:35;;;;;;;;;;;12.30;99.90;;;;;;5124391;27;20382;-57
2022/07/12 01:23:16;;;;;;;;;;;12.30;99.90;;;;;;5103860;27;19926;-56
2022/07/12 01:25:55;;;;;;;;;;;12.20;99.90;;;;;;5123354;27;19918;-56
2022/07/12 01:28:35;;;;;;;;;;;12.20;99.90;;;;;;5109545;27;19930;-55
2022/07/12 01:31:15;;;;;;;;;;;12.20;99.90;;;;;;5124481;27;19949;-55
2022/07/12 01:33:55;;;;;;;;;;;12.10;99.90;;;;;;5124149;27;20408;-56
2022/07/12 01:36:34;;;;;;;;;;;12.10;99.90;;;;;;5123884;27;20186;-55
2022/07/12 01:39:14;;;;;;;;;;;12.10;99.90;;;;;;5103608;27;19916;-55
2022/07/12 01:41:57;;;;;;;;;;;12.00;99.90;;;;;;5087809;27;19919;-55
2022/07/12 01:44:37;;;;;;;;;;;11.90;99.90;;;;;;5124006;27;19912;-56
2022/07/12 01:47:17;;;;;;;;;;;11.80;99.90;;;;;;5099426;27;19928;-56
2022/07/12 01:49:59;;;;;;;;;;;11.70;99.90;;;;;;5124311;27;19918;-55
2022/07/12 01:52:39;;;;;;;;;;;11.70;99.90;;;;;;5124603;27;19911;-57
2022/07/12 01:55:20;;;;;;;;;;;11.50;99.90;;;;;;5123447;27;20290;-56
2022/07/12 01:57:59;;;;;;;;;;;11.40;99.90;;;;;;5122046;27;19911;-54
2022/07/12 02:00:40;;;;;;;;;;;11.30;99.90;;;;;;5083943;28;19912;-55
2022/07/12 02:03:19;;;;;;;;;;;11.20;99.90;;;;;;5124547;27;19912;-55
2022/07/12 02:05:59;;;;;;;;;;;11.20;99.90;;;;;;5123295;27;19911;-55
2022/07/12 02:08:41;;;;;;;;;;;11.20;99.90;;;;;;5124031;27;19918;-56
2022/07/12 02:11:22;;;;;;;;;;;11.20;99.90;;;;;;5110880;27;20311;-54
2022/07/12 02:14:02;;;;;;;;;;;11.10;99.90;;;;;;5124623;27;20348;-55
2022/07/12 02:16:42;;;;;;;;;;;11.20;99.90;;;;;;5103874;27;20169;-54
2022/07/12 02:19:21;;;;;;;;;;;11.10;99.90;;;;;;5124250;27;19912;-58
2022/07/12 02:22:01;;;;;;;;;;;11.20;99.90;;;;;;5104068;27;19941;-56
2022/07/12 02:24:41;;;;;;;;;;;11.10;99.90;;;;;;5103763;27;19916;-57
2022/07/12 02:27:21;;;;;;;;;;;11.20;99.90;;;;;;5098506;27;20451;-56
2022/07/12 02:30:01;;;;;;;;;;;11.20;99.90;;;;;;5124629;27;20373;-55
2022/07/12 02:32:40;;;;;;;;;;;11.20;99.90;;;;;;5124750;27;19918;-55
2022/07/12 02:35:20;;;;;;;;;;;11.30;99.90;;;;;;5103359;27;19912;-55
2022/07/12 02:38:00;;;;;;;;;;;11.30;99.90;;;;;;5123728;27;19912;-57
2022/07/12 02:40:55;;;;;;;;;;;11.40;99.90;;;;;;5086546;28;19917;-55
2022/07/12 02:43:36;;;;;;;;;;;11.50;99.90;;;;;;5083598;28;19913;-57
2022/07/12 02:46:16;;;;;;;;;;;11.50;99.90;;;;;;5123567;27;20311;-57
2022/07/12 02:48:55;;;;;;;;;;;11.50;99.90;;;;;;5103815;27;19969;-55
2022/07/12 02:51:35;;;;;;;;;;;11.50;99.90;;;;;;5122731;22;19925;-57
2022/07/12 02:54:15;;;;;;;;;;;11.50;99.90;;;;;;5124209;27;19918;-57
2022/07/12 02:56:55;;;;;;;;;;;11.40;99.90;;;;;;5123747;27;20377;-57
2022/07/12 02:59:35;;;;;;;;;;;11.30;99.90;;;;;;5123753;27;19915;-56
2022/07/12 03:02:15;;;;;;;;;;;11.30;99.90;;;;;;5103718;27;20157;-57
2022/07/12 03:04:54;;;;;;;;;;;11.20;99.90;;;;;;5125054;27;20130;-57
2022/07/12 03:07:34;;;;;;;;;;;11.10;99.90;;;;;;5102802;27;19912;-57
2022/07/12 03:10:14;;;;;;;;;;;11.00;99.90;;;;;;5124268;27;19915;-57
2022/07/12 03:12:57;;;;;;;;;;;11.00;99.90;;;;;;5125528;27;19953;-55
2022/07/12 03:15:37;;;;;;;;;;;11.00;99.90;;;;;;5124600;27;20304;-57
2022/07/12 03:18:17;;;;;;;;;;;10.90;99.90;;;;;;5104241;27;19943;-57
2022/07/12 03:20:58;;;;;;;;;;;10.90;99.90;;;;;;5124756;27;19918;-57
2022/07/12 03:23:39;;;;;;;;;;;11.00;99.90;;;;;;5104213;27;19912;-57
2022/07/12 03:26:19;;;;;;;;;;;11.00;99.90;;;;;;5121064;27;19926;-57
2022/07/12 03:29:00;;;;;;;;;;;11.00;99.90;;;;;;5104148;27;19916;-57
2022/07/12 03:31:41;;;;;;;;;;;11.00;99.90;;;;;;5124588;27;20470;-57
2022/07/12 03:34:20;;;;;;;;;;;11.00;99.90;;;;;;5103972;27;19912;-57
2022/07/12 03:37:00;;;;;;;;;;;11.10;99.90;;;;;;5124118;27;20314;-57
2022/07/12 03:39:40;;;;;;;;;;;11.20;99.90;;;;;;5104284;27;19946;-57
2022/07/12 03:42:20;;;;;;;;;;;11.20;99.90;;;;;;5114721;27;19919;-57
2022/07/12 03:45:00;;;;;;;;;;;11.30;99.90;;;;;;5123873;27;20275;-57
2022/07/12 03:47:40;;;;;;;;;;;11.40;99.90;;;;;;5102805;27;19912;-57
2022/07/12 03:50:19;;;;;;;;;;;11.40;99.90;;;;;;5153519;27;19922;-57
2022/07/12 03:52:59;;;;;;;;;;;11.40;99.90;;;;;;5122877;27;19916;-57
2022/07/12 03:55:39;;;;;;;;;;;11.40;99.90;;;;;;5123721;27;19945;-57
2022/07/12 03:58:19;;;;;;;;;;;11.40;99.90;;;;;;5102469;27;20572;-57
2022/07/12 04:00:59;;;;;;;;;;;11.50;99.90;;;;;;5124568;27;20377;-57
2022/07/12 04:03:39;;;;;;;;;;;11.50;99.90;;;;;;5124611;27;19915;-57
2022/07/12 04:06:18;;;;;;;;;;;11.60;99.90;;;;;;5124016;27;19912;-56
2022/07/12 04:08:58;;;;;;;;;;;11.80;99.90;;;;;;5103949;27;19912;-57
2022/07/12 04:11:38;;;;;;;;;;;11.90;99.90;;;;;;5124343;27;19918;-57
2022/07/12 04:14:18;;;;;;;;;;;12.00;99.90;;;;;;5163398;27;20608;-57
2022/07/12 04:16:58;;;;;;;;;;;12.10;99.90;;;;;;5093689;27;19920;-57
2022/07/12 04:19:38;;;;;;;;;;;12.30;99.90;;;;;;5145866;27;19924;-57
2022/07/12 04:22:17;;;;;;;;;;;12.40;99.90;;;;;;5100812;27;20215;-57
2022/07/12 04:24:58;;;;;;;;;;;12.60;99.90;;;;;;5099180;27;19920;-57
2022/07/12 04:27:39;;;;;;;;;;;12.70;99.90;;;;;;5123308;27;19926;-57
2022/07/12 04:30:19;;;;;;;;;;;12.90;99.90;;;;;;5121703;27;19919;-57
2022/07/12 04:32:58;;;;;;;;;;;13.10;99.90;;;;;;5124474;27;19919;-57
2022/07/12 04:35:38;;;;;;;;;;;13.20;99.90;;;;;;5102969;27;20071;-57
2022/07/12 04:38:18;;;;;;;;;;;13.30;99.90;;;;;;5124139;27;20262;-56
2022/07/12 04:40:58;;;;;;;;;;;13.40;99.90;;;;;;5117039;27;20357;-57
2022/07/12 04:43:38;;;;;;;;;;;13.60;99.90;;;;;;5124611;27;19926;-57
2022/07/12 04:46:17;;;;;;;;;;;13.80;99.90;;;;;;5119418;27;19922;-56
2022/07/12 04:48:57;;;;;;;;;;;15.00;99.90;;;;;;5123343;27;19912;-56
2022/07/12 04:51:37;;;;;;;;;;;17.40;99.90;;;;;;5109965;27;19912;-56
2022/07/12 04:54:17;;;;;;;;;;;18.90;99.90;;;;;;5103356;27;20384;-56
2022/07/12 04:56:57;;;;;;;;;;;18.80;99.90;;;;;;5123759;27;19942;-56
2022/07/12 04:59:37;;;;;;;;;;;18.50;99.90;;;;;;5144598;27;19915;-56
2022/07/12 05:02:16;;;;;;;;;;;19.40;99.90;;;;;;5120975;27;19919;-56
2022/07/12 05:04:56;;;;;;;;;;;19.60;99.90;;;;;;5124531;27;19915;-56
2022/07/12 05:07:36;;;;;;;;;;;18.90;99.90;;;;;;5140483;27;19920;-56
2022/07/12 05:10:16;;;;;;;;;;;18.30;99.90;;;;;;5124264;27;20373;-56
2022/07/12 05:12:56;;;;;;;;;;;18.50;99.90;;;;;;5104425;27;19926;-56
2022/07/12 05:15:36;;;;;;;;;;;19.70;99.90;;;;;;5123446;27;19916;-56
2022/07/12 05:18:15;;;;;;;;;;;21.00;99.90;;;;;;5123733;27;19912;-57
2022/07/12 05:20:55;;;;;;;;;;;22.00;99.90;;;;;;5117211;27;19916;-57
2022/07/12 05:23:35;;;;;;;;;;;22.70;99.90;;;;;;5083600;28;20427;-57
2022/07/12 05:26:15;;;;;;;;;;;22.80;99.90;;;;;;5123421;27;19912;-57
2022/07/12 05:28:55;;;;;;;;;;;22.90;99.90;;;;;;5124704;27;19912;-56
2022/07/12 05:31:35;;;;;;;;;;;22.50;99.90;;;;;;5111579;27;19912;-56
2022/07/12 05:34:14;;;;;;;;;;;22.20;99.90;;;;;;5124466;27;19918;-57
2022/07/12 05:36:54;;;;;;;;;;;22.00;99.90;;;;;;5123977;27;19915;-56
2022/07/12 05:39:34;;;;;;;;;;;22.10;99.90;;;;;;5104257;27;19927;-57
2022/07/12 05:42:14;;;;;;;;;;;21.90;99.90;;;;;;5083862;28;19913;-57
2022/07/12 05:44:54;;;;;;;;;;;20.90;99.90;;;;;;5124304;27;19912;-57
2022/07/12 05:47:35;;;;;;;;;;;20.10;99.90;;;;;;5121513;27;20408;-57
2022/07/12 05:50:15;;;;;;;;;;;19.70;99.90;;;;;;5124269;27;19912;-57
2022/07/12 05:55:53;;;;;;;;;;;19.40;99.90;;;;;;5080989;28;19917;-57
2022/07/12 05:58:32;;;;;;;;;;;19.40;99.90;;;;;;5100182;27;19938;-56
2022/07/12 06:01:12;;;;;;;;;;;19.10;99.90;;;;;;5103511;27;19930;-56
2022/07/12 06:03:52;;;;;;;;;;;18.90;99.90;;;;;;5123508;27;19915;-56
2022/07/12 06:06:32;;;;;;;;;;;19.00;99.90;;;;;;5123421;27;20431;-56
2022/07/12 06:09:11;;;;;;;;;;;18.80;99.90;;;;;;5124250;27;19916;-56
2022/07/12 06:11:51;;;;;;;;;;;18.60;99.90;;;;;;5124993;27;19915;-56
2022/07/12 06:14:32;;;;;;;;;;;18.30;99.90;;;;;;5124384;27;19922;-56
2022/07/12 06:17:41;;;;;;;;;;;18.40;99.90;;;;;;5120074;27;19920;-57
2022/07/12 06:20:22;;;;;;;;;;;18.50;99.90;;;;;;5011420;27;3371563;-57
2022/07/12 06:23:03;;;;;;;;;;;18.30;99.90;;;;;;5124819;27;19912;-57
2022/07/12 06:25:43;;;;;;;;;;;18.40;99.90;;;;;;5124196;27;19911;-57
2022/07/12 06:28:23;;;;;;;;;;;18.80;99.90;;;;;;5163961;27;19915;-56
2022/07/12 06:31:03;;;;;;;;;;;19.20;99.90;;;;;;5104060;27;19912;-57
2022/07/12 06:33:43;;;;;;;;;;;19.50;99.90;;;;;;5103795;27;19916;-56
2022/07/12 06:36:22;;;;;;;;;;;19.40;99.90;;;;;;5101834;27;19916;-56
2022/07/12 06:39:02;;;;;;;;;;;18.90;99.90;;;;;;5083181;28;19916;-57
2022/07/12 06:41:42;;;;;;;;;;;18.60;99.90;;;;;;5124716;27;19913;-57
2022/07/12 06:44:22;;;;;;;;;;;18.30;99.90;;;;;;5124409;27;19919;-56
2022/07/12 06:47:02;;;;;;;;;;;18.00;99.90;;;;;;5122115;27;19911;-56
2022/07/12 06:49:41;;;;;;;;;;;18.00;99.90;;;;;;5124781;27;19934;-56
2022/07/12 06:52:21;;;;;;;;;;;18.10;99.90;;;;;;5125020;27;20399;-56
2022/07/12 06:55:01;;;;;;;;;;;18.10;99.90;;;;;;5124443;27;19911;-56
2022/07/12 06:57:41;;;;;;;;;;;18.10;99.90;;;;;;5101610;27;19916;-56
2022/07/12 07:00:21;;;;;;;;;;;18.10;99.90;;;;;;5122416;27;19912;-56
2022/07/12 07:03:01;;;;;;;;;;;18.10;99.90;;;;;;5103459;27;19912;-56
2022/07/12 07:05:40;;;;;;;;;;;18.20;99.90;;;;;;5122659;27;20555;-56
2022/07/12 07:08:20;;;;;;;;;;;18.40;99.90;;;;;;5122753;27;19925;-56
2022/07/12 07:11:00;;;;;;;;;;;18.50;99.90;;;;;;5116223;27;19912;-56
2022/07/12 07:13:40;;;;;;;;;;;18.60;99.90;;;;;;5102525;27;19919;-56
2022/07/12 07:16:22;;;;;;;;;;;18.50;99.90;;;;;;5102834;27;19946;-56
2022/07/12 07:19:02;;;;;;;;;;;18.60;99.90;;;;;;5124036;27;19916;-56
2022/07/12 07:21:42;;;;;;;;;;;18.70;99.90;;;;;;5158110;27;20326;-56
2022/07/12 07:24:23;;;;;;;;;;;18.90;99.90;;;;;;5124301;27;19915;-56
2022/07/12 07:27:02;;;;;;;;;;;19.00;99.90;;;;;;5103625;27;19945;-56
2022/07/12 07:32:39;;;;;;;;;;;19.10;99.90;;;;;;5124487;27;19916;-56
2022/07/12 07:35:20;;;;;;;;;;;19.20;99.90;;;;;;5162420;27;19911;-56
2022/07/12 07:38:01;;;;;;;;;;;19.40;99.90;;;;;;5123710;27;19912;-56
2022/07/12 07:40:40;;;;;;;;;;;19.40;99.90;;;;;;5103545;27;20328;-56
2022/07/12 07:43:20;;;;;;;;;;;19.50;99.90;;;;;;5124353;27;20323;-56
2022/07/12 07:46:01;;;;;;;;;;;19.50;99.90;;;;;;5123686;27;19916;-56
2022/07/12 07:48:42;;;;;;;;;;;19.40;99.90;;;;;;5124982;27;19934;-56
2022/07/12 07:51:21;;;;;;;;;;;19.40;99.90;;;;;;5113365;27;19912;-56
2022/07/12 07:54:02;;;;;;;;;;;19.60;99.90;;;;;;5123869;27;20389;-56
2022/07/12 07:56:43;;;;;;;;;;;19.70;99.90;;;;;;5103164;27;19920;-56
2022/07/12 07:59:22;;;;;;;;;;;19.60;99.90;;;;;;5122095;27;19911;-56
2022/07/12 08:02:02;;;;;;;;;;;19.70;99.90;;;;;;5124909;27;20262;-56
2022/07/12 08:04:42;;;;;;;;;;;19.80;99.90;;;;;;5124372;27;20331;-56
2022/07/12 08:07:22;;;;;;;;;;;19.90;99.90;;;;;;5111570;27;19916;-57
2022/07/12 08:10:02;;;;;;;;;;;20.10;99.90;;;;;;5124567;27;19929;-57
2022/07/12 08:12:42;;;;;;;;;;;20.20;99.90;;;;;;5123782;27;19919;-57
2022/07/12 08:15:21;;;;;;;;;;;20.50;99.90;;;;;;5083070;28;20370;-57
2022/07/12 08:18:02;;;;;;;;;;;20.60;99.90;;;;;;5124023;27;20508;-57
2022/07/12 08:20:43;;;;;;;;;;;20.60;99.90;;;;;;5119474;27;19915;-58
2022/07/12 08:23:24;;;;;;;;;;;20.50;99.90;;;;;;5104268;27;19913;-56
2022/07/12 08:26:04;;;;;;;;;;;20.70;99.90;;;;;;5123017;27;19915;-56
2022/07/12 08:28:44;;;;;;;;;;;20.70;99.90;;;;;;5104117;27;19962;-59
2022/07/12 08:31:24;;;;;;;;;;;20.70;99.90;;;;;;5113690;27;19916;-56
2022/07/12 08:34:03;;;;;;;;;;;20.90;99.90;;;;;;5104009;27;20589;-56
2022/07/12 08:36:43;;;;;;;;;;;21.30;99.90;;;;;;5102899;27;19916;-57
2022/07/12 08:39:23;;;;;;;;;;;21.90;99.90;;;;;;5124385;27;19912;-57
2022/07/12 08:42:04;;;;;;;;;;;22.20;99.90;;;;;;5104037;27;19954;-56
2022/07/12 08:44:44;;;;;;;;;;;22.60;99.90;;;;;;5124715;27;19941;-57
2022/07/12 08:47:25;;;;;;;;;;;23.30;99.90;;;;;;5103160;27;19926;-57
2022/07/12 08:50:13;;;;;;;;;;;23.90;92.30;;;;;;5083993;28;19917;-56
2022/07/12 08:52:54;;;;;;;;;;;24.40;87.20;;;;;;5116558;22;19932;-54
2022/07/12 08:55:36;;;;;;;;;;;25.00;77.60;;;;;;5124089;27;19915;-55
2022/07/12 08:58:18;;;;;;;;;;;25.10;72.40;;;;;;5101850;27;20547;-55
2022/07/12 09:00:58;;;;;;;;;;;25.40;68.80;;;;;;5124682;27;19912;-56
2022/07/12 09:03:38;;;;;;;;;;;25.60;71.30;;;;;;5144990;27;19919;-56
2022/07/12 09:06:17;;;;;;;;;;;25.20;65.50;;;;;;5123655;27;19912;-57
2022/07/12 09:08:57;;;;;;;;;;;24.90;66.00;;;;;;5102333;27;20426;-55
2022/07/12 09:11:38;;;;;;;;;;;24.40;65.50;;;;;;5124510;27;19925;-56
2022/07/12 09:14:20;;;;;;;;;;;23.80;66.70;;;;;;5103461;27;19946;-55
2022/07/12 09:17:00;;;;;;;;;;;23.30;70.70;;;;;;5124032;27;19911;-55
2022/07/12 09:19:54;;;;;;;;;;;22.90;73.60;;;;;;5104582;27;20156;-56
2022/07/12 09:22:34;;;;;;;;;;;23.20;75.00;;;;;;5102480;27;20427;-56
2022/07/12 09:25:18;;;;;;;;;;;24.00;72.40;;;;;;5103328;27;19912;-56
2022/07/12 09:27:59;;;;;;;;;;;24.80;64.10;;;;;;5123988;27;19912;-54
2022/07/12 09:30:47;;;;;;;;;;;25.40;59.00;;;;;;5124528;27;20319;-56
2022/07/12 09:36:26;;;;;;;;;;;24.90;56.70;;;;;;5123653;27;19912;-55
2022/07/12 09:39:07;;;;;;;;;;;24.50;59.20;;;;;;5124405;27;19912;-56
2022/07/12 09:41:47;;;;;;;;;;;24.60;60.70;;;;;;5083746;28;19913;-56
2022/07/12 09:44:28;;;;;;;;;;;25.00;57.70;;;;;;5124218;27;20153;-56
2022/07/12 09:47:12;;;;;;;;;;;24.80;58.20;;;;;;5102587;27;20315;-54
2022/07/12 09:49:53;;;;;;;;;;;24.40;60.50;;;;;;5104240;27;19926;-54
2022/07/12 09:52:33;;;;;;;;;;;23.80;62.40;;;;;;5111011;27;19926;-56
2022/07/12 09:55:17;;;;;;;;;;;23.60;61.70;;;;;;5124401;27;20014;-54
2022/07/12 09:58:01;;;;;;;;;;;23.20;60.10;;;;;;5122080;27;20316;-56
2022/07/12 10:00:41;;;;;;;;;;;23.30;60.40;;;;;;5104797;27;19926;-57
2022/07/12 10:03:24;;;;;;;;;;;23.90;61.10;;;;;;5124556;27;19912;-55
2022/07/12 10:06:04;;;;;;;;;;;24.40;57.30;;;;;;5103071;27;19916;-55
2022/07/12 10:08:44;;;;;;;;;;;24.90;54.50;;;;;;5122036;27;19919;-57
2022/07/12 10:11:26;;;;;;;;;;;25.30;51.40;;;;;;5124259;27;20324;-56
2022/07/12 10:14:05;;;;;;;;;;;25.60;50.90;;;;;;5103990;27;19930;-56
2022/07/12 10:16:45;;;;;;;;;;;25.40;50.50;;;;;;5123932;27;20146;-58
2022/07/12 10:19:25;;;;;;;;;;;24.90;51.40;;;;;;5124321;27;19915;-55
2022/07/12 10:22:07;;;;;;;;;;;24.40;52.60;;;;;;5114614;27;20373;-55
2022/07/12 10:24:49;;;;;;;;;;;24.70;53.80;;;;;;5110249;27;19916;-54
2022/07/12 10:27:31;;;;;;;;;;;25.70;53.50;;;;;;5103560;27;19912;-57
2022/07/12 10:30:18;;;;;;;;;;;26.30;51.40;;;;;;5124534;27;19911;-55
2022/07/12 10:32:59;;;;;;;;;;;26.20;49.40;;;;;;5139898;27;20326;-57
2022/07/12 10:35:40;;;;;;;;;;;25.90;49.80;;;;;;5103597;27;19919;-55
2022/07/12 10:38:22;;;;;;;;;;;25.30;49.80;;;;;;5081500;28;20314;-53
2022/07/12 10:41:16;;;;;;;;;;;24.50;51.60;;;;;;5103210;27;19916;-56
2022/07/12 10:44:07;;;;;;;;;;;24.30;53.40;;;;;;5103338;27;19943;-57
2022/07/12 10:46:59;;;;;;;;;;;24.40;52.60;;;;;;5123448;27;19915;-54
2022/07/12 10:49:43;;;;;;;;;;;24.60;53.20;;;;;;5123912;27;19919;-55
2022/07/12 10:52:27;;;;;;;;;;;24.80;53.70;;;;;;5110525;27;19912;-56
2022/07/12 10:55:18;;;;;;;;;;;25.30;50.60;;;;;;5122997;27;19911;-54
2022/07/12 10:57:59;;;;;;;;;;;25.60;50.40;;;;;;5100196;27;19912;-55
2022/07/12 11:00:41;;;;;;;;;;;25.90;46.20;;;;;;5123686;27;19919;-55
2022/07/12 11:03:22;;;;;;;;;;;26.00;46.40;;;;;;5123033;27;20207;-56
2022/07/12 11:06:04;;;;;;;;;;;26.00;46.20;;;;;;5143472;27;19919;-55
2022/07/12 11:08:54;;;;;;;;;;;26.00;47.10;;;;;;5143847;27;20323;-57
2022/07/12 11:11:35;;;;;;;;;;;26.30;46.80;;;;;;5097445;27;19916;-57
2022/07/12 11:14:21;;;;;;;;;;;26.00;46.60;;;;;;5123036;27;19918;-55
2022/07/12 11:17:00;;;;;;;;;;;25.80;47.40;;;;;;5122728;27;19919;-57
2022/07/12 11:19:40;;;;;;;;;;;26.20;45.10;;;;;;5123614;27;19922;-56
2022/07/12 11:22:25;;;;;;;;;;;26.30;44.80;;;;;;5137776;27;20319;-56
2022/07/12 11:25:06;;;;;;;;;;;26.70;45.50;;;;;;5122675;27;19916;-56
2022/07/12 11:27:46;;;;;;;;;;;27.00;43.60;;;;;;5122098;27;19919;-56
2022/07/12 11:30:38;;;;;;;;;;;27.40;43.60;;;;;;5108858;27;19945;-55
2022/07/12 11:33:18;;;;;;;;;;;27.40;42.90;;;;;;5122921;27;20379;-54
2022/07/12 11:35:57;;;;;;;;;;;26.70;44.20;;;;;;5150157;27;19934;-55
2022/07/12 11:38:38;;;;;;;;;;;26.40;44.20;;;;;;5087871;27;19912;-56
2022/07/12 11:41:19;;;;;;;;;;;26.30;45.10;;;;;;5120312;27;20332;-55
2022/07/12 11:44:00;;;;;;;;;;;26.20;43.60;;;;;;5122732;27;19919;-56
2022/07/12 11:46:40;;;;;;;;;;;26.30;44.00;;;;;;5123052;27;19916;-54
2022/07/12 11:49:20;;;;;;;;;;;26.60;42.10;;;;;;5123348;27;19918;-55
2022/07/12 11:52:00;;;;;;;;;;;26.60;42.50;;;;;;5123483;27;20377;-56
2022/07/12 11:54:39;;;;;;;;;;;26.70;43.50;;;;;;5123573;27;20120;-55
2022/07/12 11:57:21;;;;;;;;;;;27.10;43.20;;;;;;5121771;27;19912;-55
2022/07/12 12:00:12;;;;;;;;;;;27.20;42.30;;;;;;5124986;27;20313;-53
2022/07/12 12:02:53;;;;;;;;;;;27.40;41.00;;;;;;5083866;28;19913;-56
2022/07/12 12:05:34;;;;;;;;;;;27.20;41.20;;;;;;5124059;27;19912;-55
2022/07/12 12:08:16;;;;;;;;;;;26.40;43.80;;;;;;5123685;27;19945;-55
2022/07/12 12:10:57;;;;;;;;;;;25.80;45.20;;;;;;5145236;27;19918;-54
2022/07/12 12:13:37;;;;;;;;;;;25.70;44.50;;;;;;5145071;27;20273;-57
2022/07/12 12:16:17;;;;;;;;;;;25.60;44.80;;;;;;5123727;27;19911;-53
2022/07/12 12:19:01;;;;;;;;;;;25.80;44.10;;;;;;5124568;27;19911;-55
2022/07/12 12:21:42;;;;;;;;;;;26.00;42.70;;;;;;5118513;27;19916;-56
2022/07/12 12:24:21;;;;;;;;;;;26.00;42.30;;;;;;5102842;27;20328;-54
2022/07/12 12:27:01;;;;;;;;;;;26.00;41.70;;;;;;5123959;27;20365;-53
2022/07/12 12:29:42;;;;;;;;;;;25.80;42.10;;;;;;5083984;28;19912;-55
2022/07/12 12:32:22;;;;;;;;;;;25.70;44.30;;;;;;5104039;27;20321;-56
2022/07/12 12:35:09;;;;;;;;;;;26.10;45.60;;;;;;5104071;27;20332;-54
2022/07/12 12:37:52;;;;;;;;;;;26.60;42.10;;;;;;5122307;27;19919;-54
2022/07/12 12:40:34;;;;;;;;;;;27.10;40.70;;;;;;5124938;27;19918;-55
2022/07/12 12:43:19;;;;;;;;;;;26.90;40.60;;;;;;5123695;27;19915;-55
2022/07/12 12:45:59;;;;;;;;;;;26.20;41.00;;;;;;5101134;27;19917;-55
2022/07/12 12:48:46;;;;;;;;;;;25.30;42.60;;;;;;5102415;27;20373;-56
2022/07/12 12:51:27;;;;;;;;;;;25.10;44.20;;;;;;5120392;27;20373;-54
2022/07/12 12:54:08;;;;;;;;;;;25.40;43.80;;;;;;5124063;27;19913;-54
2022/07/12 12:56:48;;;;;;;;;;;25.50;42.10;;;;;;5123399;27;19916;-56
2022/07/12 12:59:28;;;;;;;;;;;25.60;41.70;;;;;;5101837;27;20427;-55
2022/07/12 13:02:08;;;;;;;;;;;26.10;41.20;;;;;;5104046;27;19912;-55
2022/07/12 13:04:49;;;;;;;;;;;26.60;39.80;;;;;;5103509;27;19915;-56
2022/07/12 13:07:29;;;;;;;;;;;26.70;41.50;;;;;;5123399;27;19912;-57
2022/07/12 13:10:09;;;;;;;;;;;26.90;38.90;;;;;;5104273;27;20385;-53
2022/07/12 13:12:49;;;;;;;;;;;26.90;40.70;;;;;;5124366;27;19912;-55
2022/07/12 13:15:29;;;;;;;;;;;27.00;38.60;;;;;;5123156;27;19915;-55
2022/07/12 13:18:08;;;;;;;;;;;27.30;38.70;;;;;;5123751;27;19918;-55
2022/07/12 13:20:48;;;;;;;;;;;27.30;37.70;;;;;;5077963;28;19916;-55
2022/07/12 13:23:28;;;;;;;;;;;27.20;37.80;;;;;;5123981;27;20285;-57
2022/07/12 13:26:08;;;;;;;;;;;27.50;39.60;;;;;;5122682;27;19919;-54
2022/07/12 13:28:48;;;;;;;;;;;27.40;37.80;;;;;;5123467;27;19919;-55
2022/07/12 13:31:28;;;;;;;;;;;27.10;38.70;;;;;;5101636;27;19958;-54
2022/07/12 13:34:07;;;;;;;;;;;27.00;39.00;;;;;;5123875;27;19911;-56
2022/07/12 13:36:47;;;;;;;;;;;27.00;39.40;;;;;;5100545;27;19954;-54
2022/07/12 13:42:25;;;;;;;;;;;27.30;38.40;;;;;;5112063;27;19916;-54
2022/07/12 13:45:05;;;;;;;;;;;27.00;38.00;;;;;;5123906;27;19920;-56
2022/07/12 13:47:46;;;;;;;;;;;26.60;38.10;;;;;;5123420;27;20377;-53
2022/07/12 13:50:27;;;;;;;;;;;26.30;39.00;;;;;;5123485;27;19922;-56
2022/07/12 13:53:07;;;;;;;;;;;26.50;38.40;;;;;;5105900;27;19924;-56
2022/07/12 13:55:47;;;;;;;;;;;26.60;38.30;;;;;;5102780;27;19927;-55
2022/07/12 13:58:27;;;;;;;;;;;26.80;38.00;;;;;;5122243;27;19912;-56
2022/07/12 14:01:07;;;;;;;;;;;27.10;38.70;;;;;;5124546;27;19912;-56
2022/07/12 14:03:46;;;;;;;;;;;27.50;38.40;;;;;;5103798;27;20305;-55
2022/07/12 14:06:26;;;;;;;;;;;27.70;36.30;;;;;;5123132;27;19915;-55
2022/07/12 14:09:06;;;;;;;;;;;27.80;36.50;;;;;;5100601;27;20439;-54
2022/07/12 14:11:46;;;;;;;;;;;27.60;36.20;;;;;;5097414;27;19926;-55
2022/07/12 14:17:32;;;;;;;;;;;27.50;38.00;;;;;;5123840;27;19911;-56
2022/07/12 14:20:14;;;;;;;;;;;27.40;37.00;;;;;;5121935;27;19916;-56
2022/07/12 14:22:56;;;;;;;;;;;27.60;39.00;;;;;;5087997;27;20329;-54
2022/07/12 14:25:36;;;;;;;;;;;28.00;36.40;;;;;;5103332;27;19926;-57
2022/07/12 14:28:16;;;;;;;;;;;28.20;35.30;;;;;;5124604;27;19926;-58
2022/07/12 14:30:55;;;;;;;;;;;28.20;37.70;;;;;;5125319;27;19916;-56
2022/07/12 14:33:36;;;;;;;;;;;28.20;35.50;;;;;;5104052;27;20384;-53
2022/07/12 14:36:15;;;;;;;;;;;27.50;35.20;;;;;;5123253;27;20273;-54
2022/07/12 14:38:55;;;;;;;;;;;27.20;37.00;;;;;;5125322;27;19911;-55
2022/07/12 14:41:35;;;;;;;;;;;27.20;35.90;;;;;;5098810;27;19930;-55
2022/07/12 14:44:15;;;;;;;;;;;27.20;35.00;;;;;;5104105;27;19953;-56
2022/07/12 14:46:55;;;;;;;;;;;27.00;36.50;;;;;;5124031;27;19912;-55
2022/07/12 14:49:34;;;;;;;;;;;27.10;37.10;;;;;;5123514;27;19919;-56
2022/07/12 14:52:14;;;;;;;;;;;27.50;34.60;;;;;;5094346;27;19927;-55
2022/07/12 14:54:54;;;;;;;;;;;27.50;35.20;;;;;;5124225;27;20423;-54
2022/07/12 14:57:34;;;;;;;;;;;27.10;35.80;;;;;;5100342;27;19930;-54
2022/07/12 15:00:16;;;;;;;;;;;27.20;36.30;;;;;;5124417;27;20327;-55
2022/07/12 15:02:59;;;;;;;;;;;27.30;33.80;;;;;;5107976;27;19920;-55
2022/07/12 15:05:39;;;;;;;;;;;27.20;34.20;;;;;;5091044;27;20397;-55
2022/07/12 15:08:20;;;;;;;;;;;27.40;35.30;;;;;;5103841;27;19946;-54
2022/07/12 15:10:59;;;;;;;;;;;27.60;34.10;;;;;;5104698;27;19962;-55
2022/07/12 15:13:39;;;;;;;;;;;27.60;33.90;;;;;;5125146;27;20340;-55
2022/07/12 15:16:19;;;;;;;;;;;27.80;33.20;;;;;;5103351;27;19916;-55
2022/07/12 15:18:59;;;;;;;;;;;27.90;33.50;;;;;;5123345;27;19912;-56
2022/07/12 15:21:39;;;;;;;;;;;27.90;33.70;;;;;;5114417;27;19921;-54
2022/07/12 15:24:19;;;;;;;;;;;27.60;32.70;;;;;;5124517;27;19911;-55
2022/07/12 15:26:59;;;;;;;;;;;27.10;32.70;;;;;;5124194;27;19912;-55
2022/07/12 15:29:40;;;;;;;;;;;26.70;34.20;;;;;;5140896;27;20315;-55
2022/07/12 15:32:20;;;;;;;;;;;27.00;34.90;;;;;;5113653;27;19916;-56
2022/07/12 15:34:59;;;;;;;;;;;28.80;32.60;;;;;;5103032;27;20020;-54
2022/07/12 15:37:39;;;;;;;;;;;30.20;30.10;;;;;;5103627;27;20403;-55
2022/07/12 15:40:19;;;;;;;;;;;30.60;29.60;;;;;;5125254;27;19911;-54
2022/07/12 15:42:59;;;;;;;;;;;30.90;28.30;;;;;;5105300;27;19912;-56
2022/07/12 15:45:39;;;;;;;;;;;31.30;28.20;;;;;;5140119;27;19920;-56
2022/07/12 15:48:19;;;;;;;;;;;32.20;27.40;;;;;;5101932;27;19912;-56